Time;durP1;ratioP1;P1;durP2;ratioP2;P2;SDS_P1;SDS_P2;PMS_P1;PMS_P2;Temp;Humidity;BMP_temperature;BMP_pressure;BME280_temperature;BME280_humidity;BME280_pressure;Samples;Min_cycle;Max_cycle;Signal;HPM_P1;HPM_P2
2022/11/05 00:26:34;;;;;;;1999.90;999.90;;;9.00;99.90;;;;;;6657747;89;20172;-79
2022/11/05 00:36:34;;;;;;;1999.90;999.90;;;8.80;99.90;;;;;;6658112;89;20209;-79
2022/11/05 00:46:35;;;;;;;1999.90;999.90;;;8.90;99.90;;;;;;6658905;89;20191;-81
2022/11/05 00:56:36;;;;;;;1999.90;999.90;;;8.80;99.90;;;;;;6658549;89;20196;-81
2022/11/05 01:06:36;;;;;;;1999.90;999.90;;;8.90;99.90;;;;;;6654577;89;20192;-78
2022/11/05 01:16:38;;;;;;;1999.90;999.90;;;8.80;99.90;;;;;;6657858;88;20726;-82
2022/11/05 01:26:39;;;;;;;1999.90;999.90;;;8.60;99.90;;;;;;6658561;89;20285;-81
2022/11/05 01:36:39;;;;;;;1999.90;999.90;;;8.60;99.90;;;;;;6655342;88;20226;-79
2022/11/05 01:46:45;;;;;;;1999.90;999.90;;;8.50;99.90;;;;;;6660967;89;20199;-81
2022/11/05 01:56:52;;;;;;;1999.90;999.90;;;8.30;99.90;;;;;;6661272;89;20184;-79
2022/11/05 02:06:53;;;;;;;1999.90;999.90;;;8.20;99.90;;;;;;6662202;89;20176;-80
2022/11/05 02:17:02;;;;;;;1999.90;999.90;;;8.10;99.90;;;;;;6680566;77;20209;-75
2022/11/05 02:27:45;;;;;;;1999.90;999.90;;;8.00;99.90;;;;;;6682051;87;20192;-75
2022/11/05 02:37:58;;;;;;;1999.90;999.90;;;7.90;99.90;;;;;;6685887;88;20228;-75
2022/11/05 02:48:06;;;;;;;1999.90;999.90;;;7.90;99.90;;;;;;6676744;88;20969;-75
2022/11/05 02:58:07;;;;;;;1999.90;999.90;;;7.90;99.90;;;;;;6676752;88;20271;-75
2022/11/05 03:08:37;;;;;;;1999.90;999.90;;;7.80;99.90;;;;;;6677271;88;20219;-75
2022/11/05 03:18:50;;;;;;;1999.90;999.90;;;7.90;99.90;;;;;;6691047;87;20262;-76
2022/11/05 03:28:58;;;;;;;1999.90;999.90;;;7.80;99.90;;;;;;6685575;88;20206;-75
2022/11/05 03:39:03;;;;;;;1999.90;999.90;;;7.90;99.90;;;;;;6676420;88;20191;-75
2022/11/05 03:49:08;;;;;;;1999.90;999.90;;;8.00;99.90;;;;;;6681709;88;20201;-75
2022/11/05 03:59:10;;;;;;;1999.90;999.90;;;7.90;99.90;;;;;;6679135;87;20581;-75
2022/11/05 04:40:08;;;;;;;1999.90;999.90;;;8.20;99.90;;;;;;6675212;88;20231;-75
2022/11/05 04:50:10;;;;;;;1999.90;999.90;;;8.10;99.90;;;;;;6679690;87;20189;-75
2022/11/05 05:00:11;;;;;;;1999.90;999.90;;;7.70;99.90;;;;;;6680255;87;20272;-74
2022/11/05 05:10:12;;;;;;;1999.90;999.90;;;7.70;99.90;;;;;;6682158;87;20191;-75
2022/11/05 05:30:32;;;;;;;1999.90;999.90;;;7.50;99.90;;;;;;6684892;88;20188;-75
2022/11/05 05:40:32;;;;;;;1999.90;999.90;;;7.40;99.90;;;;;;6679525;88;20203;-75
2022/11/05 05:50:33;;;;;;;1999.90;999.90;;;7.30;99.90;;;;;;6685205;88;20205;-76
2022/11/05 06:00:34;;;;;;;1999.90;999.90;;;7.10;99.90;;;;;;6683083;88;20669;-75
2022/11/05 06:10:35;;;;;;;1999.90;999.90;;;7.00;99.90;;;;;;6684043;87;20215;-75
2022/11/05 06:20:35;;;;;;;1999.90;999.90;;;6.90;99.90;;;;;;6681554;87;20214;-75
2022/11/05 06:30:35;;;;;;;1999.90;999.90;;;6.70;99.90;;;;;;6681923;88;20737;-75
2022/11/05 06:40:36;;;;;;;1999.90;999.90;;;6.70;99.90;;;;;;6695396;88;20332;-75
2022/11/05 06:50:37;;;;;;;1999.90;999.90;;;6.70;99.90;;;;;;6691489;87;20656;-76
2022/11/05 07:00:37;;;;;;;1999.90;999.90;;;6.60;99.90;;;;;;6679984;88;20237;-76
2022/11/05 07:10:38;;;;;;;1999.90;999.90;;;6.60;99.90;;;;;;6682046;88;20349;-75
2022/11/05 07:20:38;;;;;;;1999.90;999.90;;;6.60;99.90;;;;;;6679899;88;20237;-76
2022/11/05 07:30:39;;;;;;;1999.90;999.90;;;6.60;99.90;;;;;;6681254;88;20198;-75
2022/11/05 07:40:39;;;;;;;1999.90;999.90;;;6.70;99.90;;;;;;6680005;87;20329;-74
2022/11/05 07:50:40;;;;;;;1999.90;999.90;;;6.70;99.90;;;;;;6680172;88;20194;-76
2022/11/05 08:00:40;;;;;;;1999.90;999.90;;;7.00;99.90;;;;;;6682005;87;20194;-76
2022/11/05 08:10:42;;;;;;;1999.90;999.90;;;7.30;99.90;;;;;;6675678;88;20637;-74
2022/11/05 08:20:43;;;;;;;1999.90;999.90;;;7.80;99.90;;;;;;6677831;87;20223;-75
2022/11/05 08:30:47;;;;;;;1999.90;999.90;;;8.10;99.90;;;;;;6681301;87;20199;-74
2022/11/05 08:40:56;;;;;;;1999.90;999.90;;;8.50;99.90;;;;;;6680023;87;20280;-74
2022/11/05 08:50:59;;;;;;;1999.90;999.90;;;8.70;99.90;;;;;;6677738;87;20210;-76
2022/11/05 09:01:03;;;;;;;1999.90;999.90;;;9.00;99.90;;;;;;6680322;88;20186;-75
2022/11/05 09:11:03;;;;;;;1999.90;999.90;;;9.50;99.90;;;;;;6681239;88;20221;-75
2022/11/05 09:21:04;;;;;;;1999.90;999.90;;;9.90;99.90;;;;;;6690079;87;20175;-75
2022/11/05 09:31:07;;;;;;;1999.90;999.90;;;10.60;99.90;;;;;;6680976;88;20506;-75
2022/11/05 09:41:19;;;;;;;1999.90;999.90;;;11.50;99.90;;;;;;6677143;87;20211;-75
2022/11/05 09:51:21;;;;;;;1999.90;999.90;;;12.60;99.90;;;;;;6674358;88;20199;-75
2022/11/05 10:01:27;;;;;;;1999.90;999.90;;;12.60;99.90;;;;;;6683936;88;20804;-75
2022/11/05 10:11:39;;;;;;;1999.90;999.90;;;12.40;99.90;;;;;;6681198;87;20382;-74
2022/11/05 10:21:40;;;;;;;1999.90;999.90;;;13.80;99.90;;;;;;6680523;87;20196;-77
2022/11/05 10:31:42;;;;;;;1999.90;999.90;;;13.50;99.90;;;;;;6679811;87;20647;-74
2022/11/05 10:42:04;;;;;;;1999.90;999.90;;;13.40;99.90;;;;;;6678194;87;20168;-75
2022/11/05 10:52:20;;;;;;;1999.90;999.90;;;14.10;99.90;;;;;;6676483;87;20196;-75
2022/11/05 11:02:25;;;;;;;1999.90;999.90;;;14.40;99.90;;;;;;6684253;87;20293;-75
2022/11/05 11:12:31;;;;;;;1999.90;999.90;;;13.40;99.90;;;;;;6677624;87;20271;-76
2022/11/05 11:22:31;;;;;;;1999.90;999.90;;;13.80;99.90;;;;;;6680329;87;20202;-76
2022/11/05 11:32:41;;;;;;;1999.90;999.90;;;14.50;99.90;;;;;;6690943;87;20236;-76
2022/11/05 11:42:48;;;;;;;1999.90;999.90;;;14.50;99.90;;;;;;6675906;87;20675;-76
2022/11/05 11:52:48;;;;;;;1999.90;999.90;;;13.90;99.90;;;;;;6683952;87;20244;-76
2022/11/05 12:03:22;;;;;;;1999.90;999.90;;;13.20;99.90;;;;;;6676902;88;20217;-76
2022/11/05 12:13:35;;;;;;;1999.90;999.90;;;13.60;99.90;;;;;;6677043;87;20205;-76
2022/11/05 12:23:48;;;;;;;1999.90;999.90;;;13.40;99.90;;;;;;6682129;87;20183;-77
2022/11/05 12:34:13;;;;;;;1999.90;999.90;;;13.40;99.90;;;;;;6677607;88;20198;-76
2022/11/05 12:44:39;;;;;;;1999.90;999.90;;;12.90;99.90;;;;;;6677634;87;20350;-77
2022/11/05 12:54:45;;;;;;;1999.90;999.90;;;12.60;99.90;;;;;;6679698;87;20685;-77
2022/11/05 13:04:54;;;;;;;1999.90;999.90;;;12.60;99.90;;;;;;6680801;88;20696;-76
2022/11/05 13:15:03;;;;;;;1999.90;999.90;;;13.00;99.90;;;;;;6677715;88;20201;-78
2022/11/05 13:25:15;;;;;;;1999.90;999.90;;;12.60;99.90;;;;;;6681888;87;20254;-77
2022/11/05 13:35:24;;;;;;;1999.90;999.90;;;12.50;99.90;;;;;;6679711;87;20647;-76
2022/11/05 13:45:49;;;;;;;1999.90;999.90;;;12.40;99.90;;;;;;6681536;88;20599;-77
2022/11/05 13:56:11;;;;;;;1999.90;999.90;;;12.20;99.90;;;;;;6685620;87;20194;-78
2022/11/05 14:06:12;;;;;;;1999.90;999.90;;;12.50;99.90;;;;;;6686257;87;20375;-77
2022/11/05 14:16:19;;;;;;;1999.90;999.90;;;12.20;99.90;;;;;;6703619;78;20276;-77
2022/11/05 14:26:28;;;;;;;1999.90;999.90;;;12.30;99.90;;;;;;6700633;88;20190;-78
2022/11/05 14:36:38;;;;;;;1999.90;999.90;;;12.00;99.90;;;;;;6685277;88;20596;-78
2022/11/05 14:46:45;;;;;;;1999.90;999.90;;;11.80;99.90;;;;;;6685192;88;20238;-77
2022/11/05 14:56:58;;;;;;;1999.90;999.90;;;11.60;99.90;;;;;;6684710;89;20199;-76
2022/11/05 15:07:04;;;;;;;1999.90;999.90;;;11.50;99.90;;;;;;6683816;89;20270;-77
2022/11/05 15:17:52;;;;;;;1999.90;999.90;;;11.30;99.90;;;;;;6703339;87;20198;-77
2022/11/05 15:28:04;;;;;;;1999.90;999.90;;;11.10;99.90;;;;;;6702737;87;20565;-77
2022/11/05 15:38:24;;;;;;;1999.90;999.90;;;11.10;99.90;;;;;;6703616;87;20196;-77
2022/11/05 15:48:25;;;;;;;1999.90;999.90;;;11.00;99.90;;;;;;6686052;88;20202;-77
2022/11/05 15:58:26;;;;;;;1999.90;999.90;;;10.80;99.90;;;;;;6694973;88;20201;-76
2022/11/05 16:08:28;;;;;;;1999.90;999.90;;;10.70;99.90;;;;;;6685497;87;20509;-78
2022/11/05 16:18:36;;;;;;;1999.90;999.90;;;10.60;99.90;;;;;;6690539;87;20195;-77
2022/11/05 16:28:37;;;;;;;1999.90;999.90;;;10.50;99.90;;;;;;6677097;89;20813;-77
2022/11/05 16:38:37;;;;;;;1999.90;999.90;;;10.40;99.90;;;;;;6671919;89;20194;-77
2022/11/05 16:48:38;;;;;;;1999.90;999.90;;;10.30;99.90;;;;;;6683617;88;20322;-77
2022/11/05 16:58:38;;;;;;;1999.90;999.90;;;10.10;99.90;;;;;;6667743;88;20667;-77
2022/11/05 17:08:39;;;;;;;1999.90;999.90;;;9.90;99.90;;;;;;6667330;89;20603;-76
2022/11/05 17:18:41;;;;;;;1999.90;999.90;;;9.60;99.90;;;;;;6687775;87;20376;-78
2022/11/05 17:28:41;;;;;;;1999.90;999.90;;;9.50;99.90;;;;;;6734398;87;20312;-77
2022/11/05 17:38:42;;;;;;;1999.90;999.90;;;9.40;99.90;;;;;;6764324;87;20234;-76
2022/11/05 17:48:43;;;;;;;1999.90;999.90;;;9.40;99.90;;;;;;6746083;87;20295;-76
2022/11/05 17:58:44;;;;;;;1999.90;999.90;;;9.50;99.90;;;;;;6770216;87;20167;-76
2022/11/05 18:08:44;;;;;;;1999.90;999.90;;;9.70;99.90;;;;;;6778280;87;20195;-76
2022/11/05 18:18:46;;;;;;;1999.90;999.90;;;9.70;99.90;;;;;;6786909;87;20741;-76
2022/11/05 18:28:47;;;;;;;1999.90;999.90;;;9.80;99.90;;;;;;6789413;87;20954;-76
2022/11/05 18:38:48;;;;;;;1999.90;999.90;;;9.80;99.90;;;;;;6788661;87;20212;-76
2022/11/05 18:48:49;;;;;;;1999.90;999.90;;;9.80;99.90;;;;;;6788108;87;20347;-76
2022/11/05 18:58:51;;;;;;;1999.90;999.90;;;9.80;99.90;;;;;;6788114;87;20174;-77
2022/11/05 19:08:54;;;;;;;1999.90;999.90;;;9.90;99.90;;;;;;6788974;87;20193;-77
2022/11/05 19:19:00;;;;;;;1999.90;999.90;;;9.80;99.90;;;;;;6770906;87;20231;-77
2022/11/05 19:29:01;;;;;;;1999.90;999.90;;;9.70;99.90;;;;;;6771824;87;20667;-77
2022/11/05 19:39:07;;;;;;;1999.90;999.90;;;9.60;99.90;;;;;;6770812;87;20631;-77
2022/11/05 19:49:08;;;;;;;1999.90;999.90;;;9.60;99.90;;;;;;6769810;87;20178;-77
2022/11/05 19:59:10;;;;;;;1999.90;999.90;;;9.50;99.90;;;;;;6770241;87;20662;-77
2022/11/05 20:09:12;;;;;;;1999.90;999.90;;;9.60;99.90;;;;;;6771640;87;20940;-78
2022/11/05 20:19:15;;;;;;;1999.90;999.90;;;9.60;99.90;;;;;;6772309;87;20203;-77
2022/11/05 20:29:15;;;;;;;1999.90;999.90;;;9.60;99.90;;;;;;6772195;87;20209;-78
2022/11/05 20:39:17;;;;;;;1999.90;999.90;;;9.50;99.90;;;;;;6774198;87;20696;-77
2022/11/05 20:49:17;;;;;;;1999.90;999.90;;;9.50;99.90;;;;;;6773189;87;20874;-79
2022/11/05 20:59:18;;;;;;;1999.90;999.90;;;9.40;99.90;;;;;;6769137;87;20216;-77
2022/11/05 21:09:19;;;;;;;1999.90;999.90;;;9.30;99.90;;;;;;6768428;87;20186;-77
2022/11/05 21:19:22;;;;;;;1999.90;999.90;;;9.20;99.90;;;;;;6775748;87;20208;-77
2022/11/05 21:29:23;;;;;;;1999.90;999.90;;;9.00;99.90;;;;;;6781046;87;20231;-76
2022/11/05 21:39:24;;;;;;;1999.90;999.90;;;8.80;99.90;;;;;;6774223;87;20198;-77
2022/11/05 21:49:24;;;;;;;1999.90;999.90;;;8.70;99.90;;;;;;6773015;87;20274;-78
2022/11/05 22:09:45;;;;;;;1999.90;999.90;;;8.70;99.90;;;;;;6773909;87;20213;-77
2022/11/05 22:19:45;;;;;;;1999.90;999.90;;;8.60;99.90;;;;;;6768366;87;20776;-77
2022/11/05 22:29:46;;;;;;;1999.90;999.90;;;8.50;99.90;;;;;;6770330;87;20269;-77
2022/11/05 22:39:47;;;;;;;1999.90;999.90;;;8.40;99.90;;;;;;6773241;87;20193;-76
2022/11/05 22:49:49;;;;;;;1999.90;999.90;;;8.40;99.90;;;;;;6769012;87;20195;-76
2022/11/05 22:59:49;;;;;;;1999.90;999.90;;;8.40;99.90;;;;;;6792541;87;20194;-76
2022/11/05 23:51:21;;;;;;;1999.90;999.90;;;8.30;99.90;;;;;;6776537;87;20277;-76
